createdAt,value
2019-02-15T00:01:23.730Z,101731.92
2019-02-15T00:03:52.966Z,101727.41
2019-02-15T00:06:22.436Z,101732.72
2019-02-15T00:08:51.647Z,101725.53
2019-02-15T00:11:21.127Z,101729.55
2019-02-15T00:13:50.348Z,101727.67
2019-02-15T00:16:20.264Z,101725.00
2019-02-15T00:19:08.428Z,101721.81
2019-02-15T00:21:56.562Z,101719.09
2019-02-15T00:24:26.161Z,101714.23
2019-02-15T00:26:55.352Z,101717.08
2019-02-15T00:29:24.572Z,101716.41
2019-02-15T00:31:54.039Z,101712.08
2019-02-15T00:34:23.561Z,101711.05
2019-02-15T00:36:53.176Z,101709.89
2019-02-15T00:39:22.668Z,101707.39
2019-02-15T00:41:51.871Z,101717.38
2019-02-15T00:44:21.355Z,101715.66
2019-02-15T00:50:15.245Z,101716.12
2019-02-15T00:53:03.630Z,101719.61
2019-02-15T00:55:51.808Z,101724.27
2019-02-15T00:58:28.965Z,101725.42
2019-02-15T01:01:17.420Z,101719.75
2019-02-15T01:03:51.295Z,101723.27
2019-02-15T01:06:39.692Z,101718.25
2019-02-15T01:09:28.219Z,101718.25
2019-02-15T01:12:16.348Z,101711.58
2019-02-15T01:14:45.653Z,101709.25
2019-02-15T01:17:14.846Z,101703.11
2019-02-15T01:19:44.869Z,101702.09
2019-02-15T01:22:14.330Z,101694.91
2019-02-15T01:24:43.848Z,101699.58
2019-02-15T01:27:31.966Z,101701.91
2019-02-15T01:30:20.120Z,101694.84
2019-02-15T01:33:27.586Z,101685.85
2019-02-15T01:36:08.599Z,101696.24
2019-02-15T01:38:57.072Z,101692.36
2019-02-15T01:41:45.470Z,101686.82
2019-02-15T01:47:31.167Z,101689.36
2019-02-15T01:50:19.910Z,101689.19
2019-02-15T01:52:49.099Z,101692.52
2019-02-15T01:55:18.335Z,101686.30
2019-02-15T01:57:47.524Z,101686.78
2019-02-15T02:02:57.559Z,101690.41
2019-02-15T02:05:27.194Z,101689.06
2019-02-15T02:07:56.396Z,101683.05
2019-02-15T02:10:25.994Z,101681.06
2019-02-15T02:12:55.194Z,101676.70
2019-02-15T02:15:24.783Z,101662.66
2019-02-15T02:17:53.977Z,101660.64
2019-02-15T02:20:23.193Z,101669.02
2019-02-15T02:22:52.401Z,101663.13
2019-02-15T02:25:22.186Z,101663.67
2019-02-15T02:27:51.669Z,101665.98
2019-02-15T02:30:21.522Z,101663.80
2019-02-15T02:32:50.725Z,101666.17
2019-02-15T02:35:21.036Z,101664.03
2019-02-15T02:38:02.447Z,101667.81
2019-02-15T02:43:06.867Z,101668.95
2019-02-15T02:45:36.350Z,101665.28
2019-02-15T02:48:06.157Z,101665.13
2019-02-15T02:50:35.640Z,101663.47
2019-02-15T02:53:05.103Z,101667.98
2019-02-15T02:55:34.337Z,101672.84
2019-02-15T02:58:03.785Z,101673.16
2019-02-15T03:00:34.017Z,101671.81
2019-02-15T03:03:04.569Z,101671.81
2019-02-15T03:05:34.049Z,101668.92
2019-02-15T03:08:03.863Z,101669.16
2019-02-15T03:10:33.866Z,101663.44
2019-02-15T03:13:03.059Z,101658.55
2019-02-15T03:15:32.704Z,101660.19
2019-02-15T03:18:01.895Z,101661.16
2019-02-15T03:20:31.777Z,101655.69
2019-02-15T03:36:59.094Z,101647.03
2019-02-15T03:39:47.228Z,101646.77
2019-02-15T03:42:16.893Z,101643.78
2019-02-15T03:44:46.449Z,101641.43
2019-02-15T03:50:16.822Z,101642.73
2019-02-15T03:52:46.586Z,101639.03
2019-02-15T03:55:16.076Z,101644.75
2019-02-15T03:57:45.293Z,101642.73
2019-02-15T04:03:09.609Z,101639.03
2019-02-15T04:05:38.827Z,101634.05
2019-02-15T04:08:08.307Z,101631.03
2019-02-15T04:10:37.532Z,101631.73
2019-02-15T04:13:06.974Z,101630.72
2019-02-15T04:15:36.545Z,101631.40
2019-02-15T04:18:06.363Z,101630.60
2019-02-15T04:20:35.576Z,101635.41
2019-02-15T04:23:05.056Z,101644.44
2019-02-15T04:25:34.255Z,101645.49
2019-02-15T04:28:03.729Z,101635.67
2019-02-15T04:30:33.221Z,101632.05
2019-02-15T04:33:02.896Z,101635.59
2019-02-15T04:35:32.937Z,101633.22
2019-02-15T04:38:02.439Z,101639.73
2019-02-15T04:40:31.894Z,101636.44
2019-02-15T04:43:01.394Z,101640.63
2019-02-15T04:45:31.718Z,101633.91
2019-02-15T04:48:00.954Z,101638.09
2019-02-15T04:50:30.400Z,101634.73
2019-02-15T04:53:02.929Z,101632.73
2019-02-15T04:55:31.397Z,101624.22
2019-02-15T04:58:01.160Z,101626.41
2019-02-15T05:00:30.357Z,101628.55
2019-02-15T05:03:00.139Z,101623.87
2019-02-15T05:05:29.899Z,101623.55
2019-02-15T05:07:59.111Z,101626.05
2019-02-15T05:10:28.558Z,101626.90
2019-02-15T05:12:58.062Z,101625.38
2019-02-15T05:15:27.505Z,101626.22
2019-02-15T05:17:57.018Z,101618.70
2019-02-15T05:20:26.523Z,101620.57
2019-02-15T05:22:56.018Z,101621.25
2019-02-15T05:25:25.495Z,101622.23
2019-02-15T05:27:55.361Z,101615.59
2019-02-15T05:30:25.265Z,101615.91
2019-02-15T05:32:55.137Z,101612.92
2019-02-15T05:35:24.650Z,101613.90
2019-02-15T05:37:53.868Z,101613.22
2019-02-15T05:40:23.514Z,101615.06
2019-02-15T05:42:53.679Z,101610.91
2019-02-15T05:45:23.479Z,101609.22
2019-02-15T05:47:52.970Z,101608.55
2019-02-15T05:50:22.162Z,101608.86
2019-02-15T05:52:52.111Z,101610.86
2019-02-15T05:55:21.873Z,101614.20
2019-02-15T06:00:36.794Z,101613.34
2019-02-15T06:02:58.262Z,101614.85
2019-02-15T06:05:28.065Z,101615.66
2019-02-15T06:07:57.565Z,101614.51
2019-02-15T06:10:27.089Z,101617.36
2019-02-15T06:12:56.615Z,101617.55
2019-02-15T06:15:25.843Z,101629.27
2019-02-15T06:17:55.134Z,101631.11
2019-02-15T06:20:24.974Z,101622.89
2019-02-15T06:22:54.567Z,101625.74
2019-02-15T06:25:24.177Z,101631.41
2019-02-15T06:27:53.661Z,101627.08
2019-02-15T06:30:23.698Z,101630.42
2019-02-15T06:32:53.037Z,101629.41
2019-02-15T06:35:22.607Z,101628.55
2019-02-15T06:37:52.211Z,101625.19
2019-02-15T06:40:22.068Z,101630.17
2019-02-15T06:42:52.238Z,101623.28
2019-02-15T06:45:25.010Z,101627.28
2019-02-15T07:06:40.756Z,101644.19
2019-02-15T07:09:12.665Z,101639.52
2019-02-15T07:43:47.088Z,101652.73
2019-02-15T07:46:16.779Z,101655.72
2019-02-15T07:48:46.244Z,101658.27
2019-02-15T07:51:15.751Z,101659.08
2019-02-15T07:53:45.228Z,101660.26
2019-02-15T07:56:14.727Z,101656.22
2019-02-15T07:58:44.801Z,101652.34
2019-02-15T08:01:14.271Z,101652.33
2019-02-15T08:03:43.751Z,101642.39
2019-02-15T08:06:13.540Z,101638.01
2019-02-15T08:08:43.049Z,101643.00
2019-02-15T08:11:12.842Z,101647.83
2019-02-15T08:13:42.342Z,101643.07
2019-02-15T08:16:11.844Z,101645.20
2019-02-15T08:18:41.330Z,101647.68
2019-02-15T08:21:10.793Z,101648.19
2019-02-15T08:23:40.316Z,101640.69
2019-02-15T08:26:10.357Z,101641.31
2019-02-15T08:28:39.967Z,101647.12
2019-02-15T08:31:09.164Z,101646.20
2019-02-15T08:33:38.369Z,101651.53
2019-02-15T08:36:07.587Z,101645.58
2019-02-15T08:38:36.824Z,101647.58
2019-02-15T08:41:06.280Z,101642.97
2019-02-15T08:43:35.794Z,101643.03
2019-02-15T08:46:05.443Z,101650.30
2019-02-15T08:48:36.180Z,101652.59
2019-02-15T08:51:06.496Z,101650.56
2019-02-15T08:53:36.055Z,101659.08
2019-02-15T08:56:05.263Z,101664.45
2019-02-15T08:58:35.084Z,101674.48
2019-02-15T09:01:04.845Z,101669.02
2019-02-15T09:03:53.277Z,101671.64
2019-02-15T09:06:22.832Z,101670.58
2019-02-15T09:08:52.323Z,101654.26
2019-02-15T09:11:21.819Z,101659.17
2019-02-15T09:13:51.022Z,101652.78
2019-02-15T09:16:20.330Z,101653.42
2019-02-15T09:18:49.548Z,101650.80
2019-02-15T09:21:19.463Z,101645.28
2019-02-15T09:23:49.017Z,101639.39
2019-02-15T09:26:18.558Z,101641.66
2019-02-15T09:28:51.509Z,101641.98
2019-02-15T09:31:20.736Z,101644.55
2019-02-15T09:33:50.365Z,101642.17
2019-02-15T09:36:19.914Z,101641.48
2019-02-15T09:38:49.781Z,101634.80
2019-02-15T09:41:19.539Z,101644.29
2019-02-15T09:43:48.760Z,101635.20
2019-02-15T09:46:20.220Z,101638.08
2019-02-15T09:48:49.200Z,101635.75
2019-02-15T09:51:18.667Z,101626.59
2019-02-15T09:53:48.157Z,101626.64
2019-02-15T09:56:17.639Z,101629.03
2019-02-15T09:58:46.859Z,101628.86
2019-02-15T10:01:16.345Z,101626.09
2019-02-15T10:03:46.099Z,101633.84
2019-02-15T10:06:15.549Z,101639.19
2019-02-15T10:08:45.010Z,101635.01
2019-02-15T10:11:14.518Z,101630.88
2019-02-15T10:13:44.115Z,101630.80
2019-02-15T10:16:13.391Z,101632.73
2019-02-15T10:19:01.693Z,101628.70
2019-02-15T10:21:30.906Z,101634.23
2019-02-15T10:24:00.388Z,101630.70
2019-02-15T10:26:29.927Z,101633.52
2019-02-15T10:28:59.423Z,101633.52
2019-02-15T10:31:29.432Z,101630.19
2019-02-15T10:33:58.894Z,101635.20
2019-02-15T10:36:28.467Z,101637.61
2019-02-15T10:38:58.325Z,101637.48
2019-02-15T10:41:27.567Z,101644.03
2019-02-15T10:43:57.340Z,101637.89
2019-02-15T10:46:26.565Z,101644.23
2019-02-15T10:48:56.149Z,101635.44
2019-02-15T10:51:25.692Z,101638.03
2019-02-15T10:53:55.162Z,101633.11
2019-02-15T10:56:24.435Z,101635.51
2019-02-15T10:58:53.916Z,101625.54
2019-02-15T11:01:23.136Z,101624.28
2019-02-15T11:03:52.614Z,101619.47
2019-02-15T11:06:22.444Z,101615.98
2019-02-15T11:08:51.928Z,101613.10
2019-02-15T11:11:21.738Z,101619.23
2019-02-15T11:14:10.528Z,101616.25
2019-02-15T11:16:47.059Z,101621.30
2019-02-15T11:19:10.933Z,101619.67
2019-02-15T11:21:40.259Z,101620.17
2019-02-15T11:24:10.178Z,101611.00
2019-02-15T11:26:39.441Z,101610.56
2019-02-15T11:29:08.664Z,101612.16
2019-02-15T11:31:38.166Z,101603.52
2019-02-15T11:34:07.367Z,101602.19
2019-02-15T11:36:36.874Z,101595.73
2019-02-15T11:39:07.083Z,101597.08
2019-02-15T11:41:36.599Z,101604.42
2019-02-15T11:44:05.827Z,101600.66
2019-02-15T11:46:35.055Z,101602.85
2019-02-15T11:49:04.808Z,101591.10
2019-02-15T11:51:34.052Z,101595.95
2019-02-15T11:54:03.287Z,101593.55
2019-02-15T11:56:32.832Z,101588.72
2019-02-15T11:59:02.307Z,101593.08
2019-02-15T12:01:31.869Z,101584.39
2019-02-15T12:04:01.374Z,101575.87
2019-02-15T12:06:31.237Z,101577.34
2019-02-15T12:09:00.715Z,101562.37
2019-02-15T12:11:30.471Z,101571.80
2019-02-15T12:13:59.672Z,101575.87
2019-02-15T12:16:28.911Z,101574.06
2019-02-15T12:18:58.656Z,101568.09
2019-02-15T12:21:28.157Z,101562.98
2019-02-15T12:23:57.366Z,101566.50
2019-02-15T12:26:26.869Z,101555.06
2019-02-15T12:28:56.099Z,101555.02
2019-02-15T12:31:27.855Z,101553.97
2019-02-15T12:33:57.308Z,101551.70
2019-02-15T12:36:26.985Z,101548.37
2019-02-15T12:38:56.164Z,101547.27
2019-02-15T12:41:25.409Z,101541.77
2019-02-15T12:43:54.953Z,101541.75
2019-02-15T12:46:43.767Z,101543.17
2019-02-15T12:49:13.391Z,101559.00
2019-02-15T12:51:42.613Z,101555.89
2019-02-15T12:54:12.154Z,101559.39
2019-02-15T12:56:41.900Z,101552.25
2019-02-15T12:59:12.364Z,101556.63
2019-02-15T13:01:41.885Z,101555.08
2019-02-15T13:04:11.156Z,101553.05
2019-02-15T13:06:43.013Z,101545.11
2019-02-15T13:09:11.935Z,101538.45
2019-02-15T13:11:41.490Z,101532.14
2019-02-15T13:14:11.071Z,101534.47
2019-02-15T13:16:40.750Z,101531.64
2019-02-15T13:19:10.288Z,101529.64
2019-02-15T13:21:41.603Z,101518.34
2019-02-15T13:24:11.115Z,101522.42
2019-02-15T13:26:40.944Z,101522.78
2019-02-15T13:29:10.446Z,101521.20
2019-02-15T13:31:40.154Z,101521.87
2019-02-15T13:34:09.992Z,101509.22
2019-02-15T13:36:39.330Z,101510.98
2019-02-15T13:39:09.927Z,101501.33
2019-02-15T13:41:40.327Z,101508.06
2019-02-15T13:44:10.214Z,101498.42
2019-02-15T13:46:39.776Z,101500.59
2019-02-15T13:49:09.310Z,101510.11
2019-02-15T13:51:38.619Z,101498.88
2019-02-15T13:54:08.117Z,101500.14
2019-02-15T13:56:40.454Z,101496.91
2019-02-15T13:59:09.283Z,101498.98
2019-02-15T14:01:38.536Z,101499.07
2019-02-15T14:04:07.737Z,101496.78
2019-02-15T14:06:37.235Z,101502.84
2019-02-15T14:09:07.015Z,101494.24
2019-02-15T14:11:36.534Z,101495.31
2019-02-15T14:14:05.746Z,101487.14
2019-02-15T14:16:35.233Z,101487.20
2019-02-15T14:19:04.704Z,101485.62
2019-02-15T14:21:43.896Z,101479.02
2019-02-15T14:24:05.795Z,101480.02
2019-02-15T14:26:35.317Z,101478.36
2019-02-15T14:29:04.880Z,101475.27
2019-02-15T14:31:34.389Z,101469.86
2019-02-15T14:34:04.302Z,101469.36
2019-02-15T14:36:33.843Z,101460.37
2019-02-15T14:41:53.662Z,101454.89
2019-02-15T14:44:23.531Z,101452.95
2019-02-15T14:46:52.780Z,101451.89
2019-02-15T14:49:22.534Z,101444.78
2019-02-15T14:52:10.754Z,101439.63
2019-02-15T14:54:39.974Z,101443.94
2019-02-15T14:57:09.254Z,101441.26
2019-02-15T14:59:39.010Z,101440.75
2019-02-15T15:02:09.553Z,101439.38
2019-02-15T15:04:40.942Z,101429.58
2019-02-15T15:07:11.381Z,101433.73
2019-02-15T15:09:41.183Z,101420.35
2019-02-15T15:12:11.027Z,101420.50
2019-02-15T15:14:40.902Z,101426.89
2019-02-15T15:17:10.466Z,101422.58
2019-02-15T15:19:40.455Z,101419.34
2019-02-15T15:22:09.797Z,101418.08
2019-02-15T15:24:39.276Z,101408.55
2019-02-15T15:27:08.774Z,101403.63
2019-02-15T15:29:39.216Z,101407.58
2019-02-15T15:32:08.721Z,101404.36
2019-02-15T15:34:38.313Z,101397.92
2019-02-15T15:37:16.306Z,101391.08
2019-02-15T15:39:57.863Z,101396.78
2019-02-15T15:42:27.440Z,101388.70
2019-02-15T15:44:56.922Z,101379.90
2019-02-15T15:47:26.483Z,101389.05
2019-02-15T15:49:56.684Z,101380.31
2019-02-15T15:52:26.207Z,101375.02
2019-02-15T15:54:55.438Z,101367.31
2019-02-15T15:57:24.977Z,101358.38
2019-02-15T15:59:54.206Z,101351.52
2019-02-15T16:02:24.102Z,101352.43
2019-02-15T16:04:53.362Z,101352.65
2019-02-15T16:07:22.625Z,101346.78
2019-02-15T16:09:51.883Z,101349.66
2019-02-15T16:12:21.114Z,101341.25
2019-02-15T16:14:50.339Z,101343.33
2019-02-15T16:17:19.861Z,101335.84
2019-02-15T16:19:49.888Z,101332.02
2019-02-15T16:22:20.068Z,101315.34
2019-02-15T16:24:49.299Z,101306.33
2019-02-15T16:27:18.800Z,101293.02
2019-02-15T16:29:48.108Z,101284.45
2019-02-15T16:32:17.591Z,101287.50
2019-02-15T16:34:47.397Z,101299.23
2019-02-15T16:37:16.997Z,101296.28
2019-02-15T16:39:46.602Z,101311.27
2019-02-15T16:42:15.814Z,101310.91
2019-02-15T16:44:45.071Z,101303.61
2019-02-15T16:47:14.302Z,101313.89
2019-02-15T16:49:43.552Z,101305.16
2019-02-15T16:52:12.811Z,101305.75
2019-02-15T16:54:42.381Z,101299.26
2019-02-15T16:57:12.224Z,101297.72
2019-02-15T16:59:41.528Z,101292.22
2019-02-15T17:02:11.395Z,101293.86
2019-02-15T17:04:40.914Z,101290.95
2019-02-15T17:07:10.431Z,101294.97
2019-02-15T17:09:39.663Z,101292.78
2019-02-15T17:12:08.894Z,101289.14
2019-02-15T17:14:38.402Z,101288.16
2019-02-15T17:17:07.904Z,101281.11
2019-02-15T17:19:56.213Z,101285.02
2019-02-15T17:22:26.094Z,101274.36
2019-02-15T17:24:55.369Z,101263.73
2019-02-15T17:27:25.332Z,101275.20
2019-02-15T17:29:55.607Z,101270.33
2019-02-15T17:32:25.123Z,101265.14
2019-02-15T17:34:54.365Z,101262.63
2019-02-15T17:37:23.834Z,101266.39
2019-02-15T17:39:53.353Z,101267.65
2019-02-15T17:42:22.572Z,101262.24
2019-02-15T17:44:52.179Z,101262.02
2019-02-15T17:47:21.662Z,101265.88
2019-02-15T17:49:51.946Z,101267.52
2019-02-15T17:52:21.427Z,101261.80
2019-02-15T17:54:50.669Z,101268.75
2019-02-15T17:57:19.876Z,101266.50
2019-02-15T17:59:49.399Z,101264.72
2019-02-15T18:02:18.859Z,101266.69
2019-02-15T18:04:48.391Z,101262.24
2019-02-15T18:07:39.272Z,101267.14
2019-02-15T18:10:09.379Z,101268.41
2019-02-15T18:12:38.975Z,101263.42
2019-02-15T18:15:27.562Z,101265.92
2019-02-15T18:17:56.835Z,101276.98
2019-02-15T18:20:26.444Z,101272.45
2019-02-15T18:22:55.647Z,101273.14
2019-02-15T18:25:44.401Z,101271.59
2019-02-15T18:28:13.867Z,101273.06
2019-02-15T18:30:43.408Z,101275.25
2019-02-15T18:33:12.855Z,101269.34
2019-02-15T18:35:42.668Z,101271.83
2019-02-15T18:38:54.039Z,101269.34
2019-02-15T18:46:14.281Z,101268.91
2019-02-15T19:03:51.465Z,101246.47
2019-02-15T19:06:48.469Z,101243.66
2019-02-15T19:09:19.152Z,101240.30
2019-02-15T19:14:42.988Z,101233.42
2019-02-15T19:17:12.940Z,101226.85
2019-02-15T19:19:42.234Z,101220.17
2019-02-15T19:22:12.758Z,101220.83
2019-02-15T19:25:03.263Z,101221.75
2019-02-15T19:27:33.069Z,101222.72
2019-02-15T19:32:46.411Z,101220.45
2019-02-15T19:35:37.737Z,101215.72
2019-02-15T19:38:07.441Z,101219.83
2019-02-15T19:40:36.771Z,101206.41
2019-02-15T19:43:06.952Z,101198.72
2019-02-15T19:45:36.574Z,101189.77
2019-02-15T19:48:06.824Z,101186.75
2019-02-15T19:50:37.251Z,101182.79
2019-02-15T19:53:07.253Z,101183.20
2019-02-15T19:55:36.694Z,101179.63
2019-02-15T19:58:05.970Z,101172.09
2019-02-15T20:00:35.699Z,101168.81
2019-02-15T20:03:05.448Z,101166.46
2019-02-15T20:05:35.975Z,101168.81
2019-02-15T20:08:05.627Z,101167.80
2019-02-15T20:10:35.381Z,101170.55
2019-02-15T20:13:05.637Z,101180.59
2019-02-15T20:15:35.604Z,101177.57
2019-02-15T20:18:04.928Z,101179.30
2019-02-15T20:20:34.534Z,101173.53
2019-02-15T20:23:04.307Z,101176.22
2019-02-15T20:25:33.694Z,101175.34
2019-02-15T20:28:03.325Z,101170.21
2019-02-15T20:30:32.631Z,101169.61
2019-02-15T20:33:02.229Z,101164.88
2019-02-15T20:35:32.017Z,101168.79
2019-02-15T20:38:01.839Z,101177.64
2019-02-15T20:40:31.925Z,101169.95
2019-02-15T20:43:01.238Z,101172.20
2019-02-15T20:45:30.775Z,101175.59
2019-02-15T20:48:00.495Z,101166.97
2019-02-15T20:50:29.962Z,101169.78
2019-02-15T20:53:18.991Z,101170.97
2019-02-15T20:55:48.249Z,101167.39
2019-02-15T20:58:17.819Z,101173.28
2019-02-15T21:00:47.683Z,101173.99
2019-02-15T21:03:17.272Z,101168.36
2019-02-15T21:05:46.508Z,101169.23
2019-02-15T21:08:16.128Z,101171.73
2019-02-15T21:10:54.208Z,101168.16
2019-02-15T21:13:20.583Z,101166.92
2019-02-15T21:15:48.138Z,101164.31
2019-02-15T21:18:17.899Z,101162.20
2019-02-15T21:20:47.191Z,101162.14
2019-02-15T21:23:16.803Z,101164.63
2019-02-15T21:25:46.274Z,101160.30
2019-02-15T21:28:16.237Z,101162.98
2019-02-15T21:30:45.446Z,101162.86
2019-02-15T21:33:15.314Z,101163.50
2019-02-15T21:35:44.668Z,101155.47
2019-02-15T21:38:13.969Z,101157.52
2019-02-15T21:40:43.247Z,101163.16
2019-02-15T21:43:12.773Z,101161.98
2019-02-15T21:45:42.347Z,101160.91
2019-02-15T21:48:11.972Z,101154.90
2019-02-15T21:50:41.158Z,101158.92
2019-02-15T21:53:30.882Z,101153.42
2019-02-15T21:56:00.091Z,101155.83
2019-02-15T21:58:29.920Z,101161.47
2019-02-15T22:01:01.383Z,101158.22
2019-02-15T22:03:30.708Z,101151.03
2019-02-15T22:05:59.928Z,101158.22
2019-02-15T22:08:29.547Z,101158.31
2019-02-15T22:10:59.102Z,101153.50
2019-02-15T22:13:28.712Z,101151.35
2019-02-15T22:15:58.264Z,101142.94
2019-02-15T22:18:28.173Z,101148.87
2019-02-15T22:20:57.659Z,101146.47
2019-02-15T22:23:27.305Z,101142.42
2019-02-15T22:25:56.851Z,101141.16
2019-02-15T22:28:26.747Z,101143.25
2019-02-15T22:30:56.780Z,101141.41
2019-02-15T22:33:26.057Z,101136.59
2019-02-15T22:36:02.604Z,101135.09
2019-02-15T22:38:32.540Z,101126.73
2019-02-15T22:41:21.684Z,101128.94
2019-02-15T22:43:50.927Z,101125.87
2019-02-15T22:46:20.218Z,101127.84
2019-02-15T22:48:49.514Z,101128.13
2019-02-15T22:51:19.474Z,101124.23
2019-02-15T22:53:49.366Z,101124.08
2019-02-15T22:56:19.423Z,101115.20
2019-02-15T23:02:03.909Z,101105.41
2019-02-15T23:04:33.184Z,101111.83
2019-02-15T23:07:02.863Z,101109.98
2019-02-15T23:09:32.544Z,101102.78
2019-02-15T23:12:04.019Z,101107.25
2019-02-15T23:14:33.281Z,101100.56
2019-02-15T23:17:02.695Z,101091.42
2019-02-15T23:19:32.621Z,101089.33
2019-02-15T23:22:02.704Z,101091.86
2019-02-15T23:31:47.052Z,101084.91
2019-02-15T23:34:17.970Z,101091.81
2019-02-15T23:36:48.425Z,101092.13
2019-02-15T23:39:17.955Z,101088.53
2019-02-15T23:41:48.066Z,101089.53
2019-02-15T23:44:18.497Z,101086.24
2019-02-15T23:46:48.478Z,101088.44
2019-02-15T23:49:17.712Z,101085.19
2019-02-15T23:51:47.537Z,101082.81
2019-02-15T23:54:17.153Z,101084.86
2019-02-15T23:56:46.654Z,101089.87
2019-02-15T23:59:16.191Z,101080.00
